Portada
METAR-TAF:

METAR-TAF

Aeroports :

Fukuoka, Japó

latitud: 33-35N, longitud: 130-27E, altitud: 9 m

Observació

L'informe es va fer fa 19 minuts, a les 07:30 UTC
Vent 11 kt del Nord-Oest, variant entre Oest/Nord-Oest i Nord
Temperatura 12°C
Humitat 54%
Pressió 1021 hPa
Visibilitat 10 km o més
Escasses núvols a una alçada de 3500 ft
Núvols disperses a una alçada de 4000 ft
Cel ennuvolat a una alçada de 5000 ft

METAR: RJFF 190730Z 32011KT 300V010 9999 FEW035 SCT040 BKN050 12/03 Q1021 NOSIG RMK 1CU035 3CU040 6SC050 A3017

Hora: 16:49 (07:49 UTC)

Pronòstic

L'informe es va fer fa 2 hores i 43 minuts, a les 05:06 UTC
Pronòstic vàlid del 19 a les 06 UTC al 20 a les 12 UTC
Vent 11 kt del Nord/Nord-Oest
Visibilitat 10 km o més
Escasses núvols a una alçada de 3000 ft
Cel ennuvolat a una alçada de 4000 ft
Evolucionant progressivament
l' 20 a les 09 UTC al 20 a les 12 UTC
Vent 4 kt del Nord-Est

TAF: RJFF 190506Z 1906/2012 33011KT 9999 FEW030 BKN040 BECMG 2009/2012 05004KT

Observacions i pronòstics meteorològics de més de 4000 aeroports (METAR i TAF).

Les estacions disponibles són els punts grocs i vermells al mapa.

Posi el ratolí al punt desitjat per veure el nom de l'estació.

Feu clic per veure les observacions i els pronòstics meteorològics.

Per canviar el mapa: feu clic els botons verds amb una creu de color negre per apropar; al botó verd amb un guió per allunyar la imatge; o en les fletxes verdes per a mapes adjacents.


METAR-TAF: